createdAt,value
2019-05-06T00:00:56.630Z,1005.69
2019-05-06T00:01:49.355Z,1005.73
2019-05-06T00:02:49.376Z,1005.70
2019-05-06T00:03:49.393Z,1005.74
2019-05-06T00:04:49.412Z,1005.74
2019-05-06T00:05:50.444Z,1005.74
2019-05-06T00:06:49.451Z,1005.74
2019-05-06T00:07:49.469Z,1005.74
2019-05-06T00:08:49.491Z,1005.74
2019-05-06T00:09:49.507Z,1005.75
2019-05-06T00:10:49.529Z,1005.79
2019-05-06T00:11:50.561Z,1005.83
2019-05-06T00:12:49.566Z,1005.88
2019-05-06T00:13:49.586Z,1005.93
2019-05-06T00:14:49.606Z,1005.96
2019-05-06T00:15:49.627Z,1005.98
2019-05-06T00:16:49.646Z,1005.97
2019-05-06T00:17:50.674Z,1005.93
2019-05-06T00:18:49.681Z,1005.92
2019-05-06T00:19:49.702Z,1005.92
2019-05-06T00:20:49.720Z,1005.95
2019-05-06T00:21:49.741Z,1005.94
2019-05-06T00:22:49.757Z,1005.98
2019-05-06T00:23:50.791Z,1005.98
2019-05-06T00:24:49.809Z,1006.00
2019-05-06T00:25:49.820Z,1006.00
2019-05-06T00:26:49.839Z,1006.02
2019-05-06T00:27:49.852Z,1006.02
2019-05-06T00:28:49.871Z,1006.08
2019-05-06T00:29:50.902Z,1006.09
2019-05-06T00:30:49.913Z,1006.10
2019-05-06T00:31:49.929Z,1006.14
2019-05-06T00:32:49.951Z,1006.12
2019-05-06T00:33:49.966Z,1006.19
2019-05-06T00:34:49.988Z,1006.20
2019-05-06T00:35:51.020Z,1006.21
2019-05-06T00:36:50.033Z,1006.23
2019-05-06T00:37:50.047Z,1006.28
2019-05-06T00:38:50.064Z,1006.26
2019-05-06T00:39:50.083Z,1006.27
2019-05-06T00:40:50.105Z,1006.30
2019-05-06T00:41:51.148Z,1006.29
2019-05-06T00:42:50.143Z,1006.35
2019-05-06T00:43:50.212Z,1006.32
2019-05-06T00:44:50.189Z,1006.29
2019-05-06T00:45:50.199Z,1006.26
2019-05-06T00:46:50.227Z,1006.23
2019-05-06T00:47:51.249Z,1006.20
2019-05-06T00:48:50.260Z,1006.27
2019-05-06T00:49:50.280Z,1006.26
2019-05-06T00:50:50.297Z,1006.26
2019-05-06T00:51:50.326Z,1006.25
2019-05-06T00:52:50.337Z,1006.25
2019-05-06T00:53:51.366Z,1006.30
2019-05-06T00:54:50.377Z,1006.30
2019-05-06T00:55:50.393Z,1006.35
2019-05-06T00:56:50.412Z,1006.37
2019-05-06T00:57:50.430Z,1006.39
2019-05-06T00:58:50.481Z,1006.43
2019-05-06T00:59:53.730Z,1006.42
2019-05-06T01:00:50.496Z,1006.46
2019-05-06T01:01:50.510Z,1006.43
2019-05-06T01:02:50.535Z,1006.44
2019-05-06T01:03:50.549Z,1006.47
2019-05-06T01:04:50.567Z,1006.46
2019-05-06T01:05:51.602Z,1006.49
2019-05-06T01:06:50.609Z,1006.53
2019-05-06T01:07:50.627Z,1006.51
2019-05-06T01:08:50.646Z,1006.50
2019-05-06T01:09:50.672Z,1006.48
2019-05-06T01:10:50.688Z,1006.50
2019-05-06T01:11:51.728Z,1006.51
2019-05-06T01:12:50.723Z,1006.56
2019-05-06T01:13:50.745Z,1006.56
2019-05-06T01:14:50.763Z,1006.58
2019-05-06T01:15:50.783Z,1006.57
2019-05-06T01:16:50.804Z,1006.57
2019-05-06T01:17:53.750Z,1006.54
2019-05-06T01:18:50.842Z,1006.55
2019-05-06T01:19:50.865Z,1006.54
2019-05-06T01:20:50.882Z,1006.54
2019-05-06T01:21:50.901Z,1006.51
2019-05-06T01:22:50.922Z,1006.53
2019-05-06T01:23:51.955Z,1006.55
2019-05-06T01:24:50.962Z,1006.56
2019-05-06T01:25:50.979Z,1006.55
2019-05-06T01:26:51.002Z,1006.58
2019-05-06T01:27:51.017Z,1006.59
2019-05-06T01:28:51.035Z,1006.60
2019-05-06T01:29:52.074Z,1006.61
2019-05-06T01:30:51.077Z,1006.64
2019-05-06T01:31:51.093Z,1006.61
2019-05-06T01:32:51.116Z,1006.61
2019-05-06T01:33:51.134Z,1006.61
2019-05-06T01:34:51.163Z,1006.63
2019-05-06T01:35:54.150Z,1006.64
2019-05-06T01:36:51.192Z,1006.65
2019-05-06T01:37:51.212Z,1006.67
2019-05-06T01:38:53.441Z,1006.68
2019-05-06T01:39:51.251Z,1006.66
2019-05-06T01:40:51.271Z,1006.68
2019-05-06T01:41:53.661Z,1006.65
2019-05-06T01:42:51.314Z,1006.68
2019-05-06T01:43:51.402Z,1006.64
2019-05-06T01:44:51.376Z,1006.71
2019-05-06T01:45:53.510Z,1006.67
2019-05-06T01:46:51.389Z,1006.69
2019-05-06T01:47:54.293Z,1006.70
2019-05-06T01:48:53.463Z,1006.71
2019-05-06T01:49:53.601Z,1006.68
2019-05-06T01:50:51.469Z,1006.67
2019-05-06T01:51:51.489Z,1006.74
2019-05-06T01:52:51.506Z,1006.70
2019-05-06T01:53:54.504Z,1006.72
2019-05-06T01:54:51.558Z,1006.73
2019-05-06T01:55:51.599Z,1006.70
2019-05-06T01:56:53.666Z,1006.76
2019-05-06T01:57:51.606Z,1006.76
2019-05-06T01:58:53.532Z,1006.77
2019-05-06T01:59:53.944Z,1006.77
2019-05-06T02:00:51.663Z,1006.79
2019-05-06T02:01:58.038Z,1006.83
2019-05-06T02:02:51.703Z,1006.85
2019-05-06T02:03:53.667Z,1006.88
2019-05-06T02:04:53.519Z,1006.89
2019-05-06T02:05:54.008Z,1006.90
2019-05-06T02:06:51.799Z,1006.86
2019-05-06T02:07:51.802Z,1006.90
2019-05-06T02:08:53.807Z,1006.91
2019-05-06T02:09:54.149Z,1006.97
2019-05-06T02:10:51.862Z,1006.93
2019-05-06T02:11:53.640Z,1006.94
2019-05-06T02:12:53.898Z,1006.93
2019-05-06T02:13:53.785Z,1006.93
2019-05-06T02:14:53.938Z,1006.91
2019-05-06T02:15:52.071Z,1006.95
2019-05-06T02:16:54.346Z,1006.93
2019-05-06T02:17:55.008Z,1006.92
2019-05-06T02:18:54.025Z,1006.95
2019-05-06T02:19:52.038Z,1006.90
2019-05-06T02:20:53.777Z,1006.92
2019-05-06T02:21:54.101Z,1006.90
2019-05-06T02:22:53.879Z,1006.93
2019-05-06T02:23:53.632Z,1006.95
2019-05-06T02:24:53.630Z,1006.92
2019-05-06T02:25:54.011Z,1006.94
2019-05-06T02:26:53.731Z,1006.93
2019-05-06T02:27:54.172Z,1006.95
2019-05-06T02:28:54.027Z,1006.90
2019-05-06T02:29:54.298Z,1006.93
2019-05-06T02:30:54.740Z,1006.95
2019-05-06T02:31:56.578Z,1006.93
2019-05-06T02:32:55.412Z,1006.94
2019-05-06T02:33:55.446Z,1006.92
2019-05-06T02:34:54.547Z,1006.96
2019-05-06T02:35:55.057Z,1006.95
2019-05-06T02:36:55.089Z,1006.99
2019-05-06T02:37:54.759Z,1006.97
2019-05-06T02:38:55.814Z,1006.97
2019-05-06T02:39:53.408Z,1007.00
2019-05-06T02:40:53.539Z,1006.96
2019-05-06T02:41:54.953Z,1007.01
2019-05-06T02:42:54.558Z,1006.96
2019-05-06T02:43:54.247Z,1006.98
2019-05-06T02:44:54.173Z,1006.96
2019-05-06T02:45:53.202Z,1006.95
2019-05-06T02:46:53.383Z,1006.96
2019-05-06T02:47:53.960Z,1006.95
2019-05-06T02:48:54.288Z,1006.93
2019-05-06T02:49:53.532Z,1006.93
2019-05-06T02:50:53.730Z,1006.91
2019-05-06T02:51:53.518Z,1006.92
2019-05-06T02:52:53.732Z,1006.91
2019-05-06T02:53:54.105Z,1006.89
2019-05-06T02:54:53.660Z,1006.89
2019-05-06T02:55:53.238Z,1006.88
2019-05-06T02:56:53.261Z,1006.91
2019-05-06T02:57:53.623Z,1006.93
2019-05-06T02:58:53.656Z,1006.90
2019-05-06T02:59:55.424Z,1006.92
2019-05-06T03:00:53.869Z,1006.89
2019-05-06T03:01:53.810Z,1006.90
2019-05-06T03:02:54.133Z,1006.86
2019-05-06T03:03:53.743Z,1006.87
2019-05-06T03:04:53.135Z,1006.86
2019-05-06T03:05:53.961Z,1006.87
2019-05-06T03:06:53.428Z,1006.91
2019-05-06T03:07:57.007Z,1006.89
2019-05-06T03:08:54.083Z,1006.88
2019-05-06T03:09:53.434Z,1006.89
2019-05-06T03:10:53.633Z,1006.86
2019-05-06T03:11:54.313Z,1006.85
2019-05-06T03:12:53.921Z,1006.86
2019-05-06T03:13:53.860Z,1006.86
2019-05-06T03:14:53.552Z,1006.82
2019-05-06T03:15:54.194Z,1006.80
2019-05-06T03:16:54.078Z,1006.79
2019-05-06T03:17:55.461Z,1006.81
2019-05-06T03:18:53.621Z,1006.79
2019-05-06T03:19:53.225Z,1006.81
2019-05-06T03:20:53.523Z,1006.76
2019-05-06T03:21:54.642Z,1006.76
2019-05-06T03:22:54.410Z,1006.75
2019-05-06T03:23:54.537Z,1006.73
2019-05-06T03:24:54.434Z,1006.74
2019-05-06T03:25:53.576Z,1006.73
2019-05-06T03:26:56.753Z,1006.72
2019-05-06T03:27:53.468Z,1006.69
2019-05-06T03:28:53.745Z,1006.70
2019-05-06T03:29:54.502Z,1006.72
2019-05-06T03:30:56.713Z,1006.68
2019-05-06T03:31:56.361Z,1006.73
2019-05-06T03:33:23.481Z,1006.74
2019-05-06T03:34:13.315Z,1006.73
2019-05-06T03:35:15.708Z,1006.74
2019-05-06T03:36:05.220Z,1006.79
2019-05-06T03:36:56.038Z,1006.76
2019-05-06T03:37:53.613Z,1006.74
2019-05-06T03:38:54.003Z,1006.77
2019-05-06T03:39:53.626Z,1006.75
2019-05-06T03:40:53.941Z,1006.72
2019-05-06T03:41:54.715Z,1006.70
2019-05-06T03:42:54.080Z,1006.68
2019-05-06T03:43:54.503Z,1006.65
2019-05-06T03:44:53.821Z,1006.68
2019-05-06T03:45:53.874Z,1006.64
2019-05-06T03:46:54.199Z,1006.64
2019-05-06T03:47:54.803Z,1006.62
2019-05-06T03:48:53.844Z,1006.63
2019-05-06T03:49:54.808Z,1006.62
2019-05-06T03:50:56.082Z,1006.57
2019-05-06T03:51:56.425Z,1006.57
2019-05-06T03:52:56.444Z,1006.57
2019-05-06T03:53:56.719Z,1006.55
2019-05-06T03:54:54.008Z,1006.54
2019-05-06T03:55:54.178Z,1006.53
2019-05-06T03:56:53.987Z,1006.52
2019-05-06T03:57:54.050Z,1006.51
2019-05-06T03:58:54.033Z,1006.49
2019-05-06T03:59:55.039Z,1006.48
2019-05-06T04:00:54.055Z,1006.49
2019-05-06T04:01:54.078Z,1006.46
2019-05-06T04:02:54.135Z,1006.44
2019-05-06T04:03:57.253Z,1006.47
2019-05-06T04:04:56.776Z,1006.44
2019-05-06T04:05:55.882Z,1006.44
2019-05-06T04:06:54.199Z,1006.43
2019-05-06T04:07:54.179Z,1006.38
2019-05-06T04:08:54.239Z,1006.38
2019-05-06T04:09:54.257Z,1006.42
2019-05-06T04:10:54.252Z,1006.35
2019-05-06T04:11:55.271Z,1006.35
2019-05-06T04:12:54.283Z,1006.30
2019-05-06T04:13:54.320Z,1006.30
2019-05-06T04:14:54.451Z,1006.27
2019-05-06T04:15:54.344Z,1006.26
2019-05-06T04:16:54.377Z,1006.21
2019-05-06T04:17:55.392Z,1006.25
2019-05-06T04:18:54.468Z,1006.20
2019-05-06T04:19:54.462Z,1006.23
2019-05-06T04:20:54.439Z,1006.19
2019-05-06T04:21:54.473Z,1006.20
2019-05-06T04:22:54.509Z,1006.23
2019-05-06T04:23:55.508Z,1006.18
2019-05-06T04:24:54.523Z,1006.16
2019-05-06T04:25:54.539Z,1006.20
2019-05-06T04:26:54.601Z,1006.17
2019-05-06T04:27:54.607Z,1006.16
2019-05-06T04:28:54.597Z,1006.16
2019-05-06T04:29:55.627Z,1006.17
2019-05-06T04:30:55.003Z,1006.14
2019-05-06T04:31:54.656Z,1006.15
2019-05-06T04:32:54.694Z,1006.14
2019-05-06T04:34:08.850Z,1006.15
2019-05-06T04:34:54.886Z,1006.15
2019-05-06T04:35:55.777Z,1006.18
2019-05-06T04:36:54.765Z,1006.15
2019-05-06T04:37:54.784Z,1006.12
2019-05-06T04:38:54.812Z,1006.16
2019-05-06T04:39:54.872Z,1006.12
2019-05-06T04:40:54.847Z,1006.12
2019-05-06T04:41:55.883Z,1006.07
2019-05-06T04:42:54.875Z,1006.02
2019-05-06T04:43:54.901Z,1006.01
2019-05-06T04:44:54.925Z,1005.97
2019-05-06T04:45:54.947Z,1005.99
2019-05-06T04:46:54.964Z,1005.96
2019-05-06T04:47:55.987Z,1005.98
2019-05-06T04:48:55.069Z,1005.97
2019-05-06T04:49:55.170Z,1005.96
2019-05-06T04:50:55.036Z,1005.95
2019-05-06T04:51:55.118Z,1005.95
2019-05-06T04:52:55.180Z,1005.87
2019-05-06T04:53:56.135Z,1005.86
2019-05-06T04:54:55.127Z,1005.85
2019-05-06T04:55:55.176Z,1005.79
2019-05-06T04:56:55.157Z,1005.82
2019-05-06T04:57:55.221Z,1005.80
2019-05-06T04:58:55.202Z,1005.79
2019-05-06T04:59:56.335Z,1005.76
2019-05-06T05:00:55.252Z,1005.77
2019-05-06T05:01:55.255Z,1005.77
2019-05-06T05:02:55.278Z,1005.76
2019-05-06T05:03:55.294Z,1005.72
2019-05-06T05:04:55.316Z,1005.70
2019-05-06T05:05:56.362Z,1005.74
2019-05-06T05:06:55.362Z,1005.70
2019-05-06T05:07:55.378Z,1005.68
2019-05-06T05:08:55.447Z,1005.66
2019-05-06T05:09:55.416Z,1005.69
2019-05-06T05:10:55.438Z,1005.71
2019-05-06T05:11:56.495Z,1005.69
2019-05-06T05:12:55.495Z,1005.66
2019-05-06T05:13:55.505Z,1005.69
2019-05-06T05:14:55.521Z,1005.69
2019-05-06T05:15:55.539Z,1005.66
2019-05-06T05:16:55.569Z,1005.70
2019-05-06T05:17:56.590Z,1005.66
2019-05-06T05:18:55.631Z,1005.64
2019-05-06T05:19:55.637Z,1005.60
2019-05-06T05:20:55.638Z,1005.60
2019-05-06T05:21:55.672Z,1005.56
2019-05-06T05:22:55.679Z,1005.54
2019-05-06T05:23:56.708Z,1005.55
2019-05-06T05:24:55.730Z,1005.51
2019-05-06T05:25:55.778Z,1005.45
2019-05-06T05:26:55.808Z,1005.48
2019-05-06T05:27:55.837Z,1005.46
2019-05-06T05:28:55.832Z,1005.44
2019-05-06T05:29:56.838Z,1005.46
2019-05-06T05:30:55.842Z,1005.45
2019-05-06T05:31:55.894Z,1005.39
2019-05-06T05:32:55.978Z,1005.37
2019-05-06T05:33:55.920Z,1005.36
2019-05-06T05:34:55.926Z,1005.34
2019-05-06T05:35:56.950Z,1005.35
2019-05-06T05:36:55.959Z,1005.36
2019-05-06T05:37:55.994Z,1005.36
2019-05-06T05:38:56.019Z,1005.34
2019-05-06T05:39:56.035Z,1005.27
2019-05-06T05:40:56.052Z,1005.29
2019-05-06T05:41:57.102Z,1005.25
2019-05-06T05:42:56.079Z,1005.21
2019-05-06T05:43:56.120Z,1005.22
2019-05-06T05:44:56.118Z,1005.19
2019-05-06T05:45:56.146Z,1005.16
2019-05-06T05:46:56.159Z,1005.14
2019-05-06T05:47:57.190Z,1005.12
2019-05-06T05:48:56.209Z,1005.06
2019-05-06T05:49:56.219Z,1005.07
2019-05-06T05:50:56.274Z,1005.08
2019-05-06T05:51:56.271Z,1005.09
2019-05-06T05:52:56.280Z,1005.05
2019-05-06T05:53:57.334Z,1005.02
2019-05-06T05:54:56.321Z,1005.01
2019-05-06T05:55:56.340Z,1005.01
2019-05-06T05:56:56.464Z,1005.01
2019-05-06T05:57:56.383Z,1004.95
2019-05-06T05:58:56.406Z,1004.94
2019-05-06T05:59:57.476Z,1004.95
2019-05-06T06:00:56.443Z,1004.89
2019-05-06T06:01:57.388Z,1004.87
2019-05-06T06:02:56.483Z,1004.86
2019-05-06T06:03:56.516Z,1004.89
2019-05-06T06:04:57.699Z,1004.82
2019-05-06T06:05:57.557Z,1004.82
2019-05-06T06:06:56.566Z,1004.80
2019-05-06T06:07:56.595Z,1004.78
2019-05-06T06:08:56.606Z,1004.75
2019-05-06T06:09:56.662Z,1004.75
2019-05-06T06:10:56.649Z,1004.74
2019-05-06T06:11:57.686Z,1004.73
2019-05-06T06:12:56.693Z,1004.69
2019-05-06T06:13:56.708Z,1004.65
2019-05-06T06:14:56.751Z,1004.61
2019-05-06T06:15:56.792Z,1004.61
2019-05-06T06:16:56.816Z,1004.59
2019-05-06T06:17:57.832Z,1004.56
2019-05-06T06:18:56.811Z,1004.57
2019-05-06T06:19:56.830Z,1004.58
2019-05-06T06:20:56.851Z,1004.54
2019-05-06T06:21:56.871Z,1004.57
2019-05-06T06:22:56.918Z,1004.56
2019-05-06T06:23:57.935Z,1004.55
2019-05-06T06:24:56.934Z,1004.55
2019-05-06T06:25:56.955Z,1004.56
2019-05-06T06:26:56.977Z,1004.50
2019-05-06T06:27:56.994Z,1004.49
2019-05-06T06:28:57.068Z,1004.45
2019-05-06T06:29:58.051Z,1004.45
2019-05-06T06:30:57.059Z,1004.40
2019-05-06T06:31:57.096Z,1004.41
2019-05-06T06:32:57.248Z,1004.39
2019-05-06T06:33:57.120Z,1004.39
2019-05-06T06:35:08.344Z,1004.35
2019-05-06T06:35:58.197Z,1004.31
2019-05-06T06:36:57.204Z,1004.30
2019-05-06T06:37:57.494Z,1004.28
2019-05-06T06:38:57.224Z,1004.25
2019-05-06T06:39:57.316Z,1004.22
2019-05-06T06:40:57.285Z,1004.24
2019-05-06T06:41:58.297Z,1004.22
2019-05-06T06:42:57.306Z,1004.21
2019-05-06T06:43:57.337Z,1004.13
2019-05-06T06:44:57.385Z,1004.17
2019-05-06T06:45:57.368Z,1004.10
2019-05-06T06:46:57.483Z,1004.06
2019-05-06T06:47:58.421Z,1004.04
2019-05-06T06:48:57.465Z,1004.06
2019-05-06T06:49:57.453Z,1004.01
2019-05-06T06:50:57.472Z,1004.03
2019-05-06T06:51:57.496Z,1003.98
2019-05-06T06:52:57.515Z,1003.95
2019-05-06T06:53:58.551Z,1003.95
2019-05-06T06:54:57.583Z,1003.93
2019-05-06T06:55:57.580Z,1003.98
2019-05-06T06:57:06.209Z,1003.95
2019-05-06T06:57:57.634Z,1003.94
2019-05-06T06:58:57.642Z,1003.89
2019-05-06T06:59:58.680Z,1003.87
2019-05-06T07:00:57.683Z,1003.85
2019-05-06T07:01:57.724Z,1003.85
2019-05-06T07:02:57.799Z,1003.85
2019-05-06T07:03:57.773Z,1003.84
2019-05-06T07:04:57.765Z,1003.83
2019-05-06T07:05:58.796Z,1003.82
2019-05-06T07:06:57.805Z,1003.82
2019-05-06T07:07:57.825Z,1003.84
2019-05-06T07:08:57.847Z,1003.82
2019-05-06T07:09:57.884Z,1003.79
2019-05-06T07:10:58.554Z,1003.79
2019-05-06T07:11:58.921Z,1003.78
2019-05-06T07:12:57.932Z,1003.77
2019-05-06T07:13:57.954Z,1003.75
2019-05-06T07:14:57.990Z,1003.71
2019-05-06T07:15:58.004Z,1003.67
2019-05-06T07:16:58.020Z,1003.63
2019-05-06T07:17:59.050Z,1003.61
2019-05-06T07:18:58.059Z,1003.59
2019-05-06T07:19:58.077Z,1003.56
2019-05-06T07:20:58.098Z,1003.53
2019-05-06T07:21:58.137Z,1003.54
2019-05-06T07:22:58.144Z,1003.54
2019-05-06T07:23:59.176Z,1003.52
2019-05-06T07:24:58.185Z,1003.54
2019-05-06T07:25:58.207Z,1003.53
2019-05-06T07:26:58.229Z,1003.52
2019-05-06T07:27:58.246Z,1003.51
2019-05-06T07:28:58.308Z,1003.48
2019-05-06T07:29:59.367Z,1003.49
2019-05-06T07:31:14.901Z,1003.48
2019-05-06T07:31:58.470Z,1003.50
2019-05-06T07:33:00.609Z,1003.48
2019-05-06T07:33:58.374Z,1003.41
2019-05-06T07:34:58.412Z,1003.41
2019-05-06T07:35:59.460Z,1003.39
2019-05-06T07:36:58.579Z,1003.38
2019-05-06T07:37:58.491Z,1003.37
2019-05-06T07:38:58.641Z,1003.36
2019-05-06T07:39:58.580Z,1003.36
2019-05-06T07:40:58.681Z,1003.38
2019-05-06T07:41:59.555Z,1003.37
2019-05-06T07:42:58.564Z,1003.37
2019-05-06T07:43:58.590Z,1003.34
2019-05-06T07:44:58.605Z,1003.36
2019-05-06T07:45:58.630Z,1003.33
2019-05-06T07:46:58.647Z,1003.41
2019-05-06T07:47:59.680Z,1003.41
2019-05-06T07:48:58.697Z,1003.41
2019-05-06T07:49:58.709Z,1003.33
2019-05-06T07:50:58.732Z,1003.32
2019-05-06T07:51:58.778Z,1003.32
2019-05-06T07:52:58.772Z,1003.32
2019-05-06T07:53:59.806Z,1003.30
2019-05-06T07:54:58.816Z,1003.28
2019-05-06T07:55:58.837Z,1003.29
2019-05-06T07:56:58.857Z,1003.30
2019-05-06T07:57:58.878Z,1003.27
2019-05-06T07:58:58.899Z,1003.23
2019-05-06T07:59:59.932Z,1003.26
2019-05-06T08:00:58.945Z,1003.26
2019-05-06T08:01:58.963Z,1003.25
2019-05-06T08:02:58.986Z,1003.20
2019-05-06T08:03:59.003Z,1003.25
2019-05-06T08:04:59.025Z,1003.22
2019-05-06T08:06:02.512Z,1003.24
2019-05-06T08:06:59.157Z,1003.22
2019-05-06T08:07:59.089Z,1003.21
2019-05-06T08:08:59.115Z,1003.21
2019-05-06T08:09:59.132Z,1003.19
2019-05-06T08:10:59.157Z,1003.20
2019-05-06T08:12:02.638Z,1003.18
2019-05-06T08:12:59.215Z,1003.20
2019-05-06T08:13:59.217Z,1003.22
2019-05-06T08:14:59.240Z,1003.20
2019-05-06T08:15:59.259Z,1003.17
2019-05-06T08:16:59.280Z,1003.17
2019-05-06T08:18:00.315Z,1003.16
2019-05-06T08:18:59.335Z,1003.13
2019-05-06T08:19:59.340Z,1003.14
2019-05-06T08:20:59.363Z,1003.12
2019-05-06T08:21:59.387Z,1003.11
2019-05-06T08:22:59.410Z,1003.09
2019-05-06T08:24:02.616Z,1003.05
2019-05-06T08:24:59.446Z,1003.02
2019-05-06T08:26:10.002Z,1003.02
2019-05-06T08:26:59.780Z,1003.02
2019-05-06T08:27:59.510Z,1003.00
2019-05-06T08:28:59.535Z,1002.96
2019-05-06T08:30:02.393Z,1002.96
2019-05-06T08:30:59.572Z,1002.94
2019-05-06T08:31:59.599Z,1002.96
2019-05-06T08:32:59.616Z,1002.96
2019-05-06T08:33:59.637Z,1002.97
2019-05-06T08:34:59.662Z,1002.98
2019-05-06T08:36:08.822Z,1003.02
2019-05-06T08:36:59.701Z,1002.99
2019-05-06T08:37:59.720Z,1003.01
2019-05-06T08:39:02.772Z,1002.96
2019-05-06T08:39:59.759Z,1002.95
2019-05-06T08:40:59.785Z,1002.96
2019-05-06T08:42:02.704Z,1002.94
2019-05-06T08:43:02.053Z,1002.91
2019-05-06T08:44:02.374Z,1002.92
2019-05-06T08:45:02.090Z,1002.89
2019-05-06T08:45:59.891Z,1002.88
2019-05-06T08:46:59.915Z,1002.86
2019-05-06T08:48:02.825Z,1002.83
2019-05-06T08:48:59.949Z,1002.84
2019-05-06T08:50:02.210Z,1002.80
2019-05-06T08:51:02.536Z,1002.77
2019-05-06T08:52:02.240Z,1002.81
2019-05-06T08:53:00.033Z,1002.82
2019-05-06T08:54:03.097Z,1002.75
2019-05-06T08:55:02.348Z,1002.75
2019-05-06T08:56:01.891Z,1002.72
2019-05-06T08:57:00.123Z,1002.69
2019-05-06T08:58:02.729Z,1002.67
2019-05-06T08:59:00.161Z,1002.63
2019-05-06T09:00:03.461Z,1002.66
2019-05-06T09:01:02.709Z,1002.66
2019-05-06T09:02:00.249Z,1002.63
2019-05-06T09:03:00.241Z,1002.63
2019-05-06T09:04:09.521Z,1002.64
2019-05-06T09:05:02.736Z,1002.60
2019-05-06T09:06:03.134Z,1002.58
2019-05-06T09:07:02.755Z,1002.56
2019-05-06T09:08:00.345Z,1002.57
2019-05-06T09:09:02.454Z,1002.58
2019-05-06T09:10:02.609Z,1002.53
2019-05-06T09:11:02.961Z,1002.52
2019-05-06T09:12:02.658Z,1002.50
2019-05-06T09:13:01.996Z,1002.48
2019-05-06T09:14:03.187Z,1002.45
2019-05-06T09:15:00.495Z,1002.43
2019-05-06T09:16:02.484Z,1002.43
2019-05-06T09:17:02.609Z,1002.45
2019-05-06T09:18:02.993Z,1002.45
2019-05-06T09:19:04.375Z,1002.43
2019-05-06T09:20:02.713Z,1002.44
2019-05-06T09:21:02.832Z,1002.42
2019-05-06T09:22:02.519Z,1002.35
2019-05-06T09:23:04.238Z,1002.31
2019-05-06T09:24:02.281Z,1002.30
2019-05-06T09:25:02.488Z,1002.31
2019-05-06T09:26:02.641Z,1002.27
2019-05-06T09:27:02.833Z,1002.27
2019-05-06T09:28:02.558Z,1002.27
2019-05-06T09:29:02.279Z,1002.22
2019-05-06T09:30:02.979Z,1002.23
2019-05-06T09:31:02.247Z,1002.23
2019-05-06T09:32:01.781Z,1002.20
2019-05-06T09:33:02.621Z,1002.27
2019-05-06T09:34:02.721Z,1002.26
2019-05-06T09:35:02.907Z,1002.26
2019-05-06T09:36:03.292Z,1002.25
2019-05-06T09:37:03.433Z,1002.25
2019-05-06T09:38:02.188Z,1002.19
2019-05-06T09:39:02.297Z,1002.18
2019-05-06T09:40:02.780Z,1002.19
2019-05-06T09:41:04.798Z,1002.20
2019-05-06T09:42:02.319Z,1002.22
2019-05-06T09:43:04.655Z,1002.26
2019-05-06T09:44:03.069Z,1002.28
2019-05-06T09:45:02.243Z,1002.26
2019-05-06T09:46:02.385Z,1002.30
2019-05-06T09:47:02.423Z,1002.28
2019-05-06T09:48:03.736Z,1002.29
2019-05-06T09:49:03.304Z,1002.30
2019-05-06T09:50:02.804Z,1002.33
2019-05-06T09:51:02.946Z,1002.36
2019-05-06T09:52:02.487Z,1002.34
2019-05-06T09:53:02.500Z,1002.31
2019-05-06T09:54:04.093Z,1002.31
2019-05-06T09:55:03.243Z,1002.26
2019-05-06T09:56:03.431Z,1002.26
2019-05-06T09:57:02.378Z,1002.27
2019-05-06T09:58:03.422Z,1002.28
2019-05-06T09:59:02.238Z,1002.30
2019-05-06T10:00:04.543Z,1002.35
2019-05-06T10:01:02.652Z,1002.35
2019-05-06T10:02:01.465Z,1002.35
2019-05-06T10:03:03.098Z,1002.38
2019-05-06T10:04:03.265Z,1002.39
2019-05-06T10:05:03.516Z,1002.43
2019-05-06T10:06:02.942Z,1002.45
2019-05-06T10:07:02.662Z,1002.40
2019-05-06T10:08:03.302Z,1002.42
2019-05-06T10:09:04.718Z,1002.44
2019-05-06T10:10:01.654Z,1002.48
2019-05-06T10:11:03.172Z,1002.49
2019-05-06T10:12:02.683Z,1002.48
2019-05-06T10:13:02.709Z,1002.49
2019-05-06T10:14:02.983Z,1002.54
2019-05-06T10:15:03.279Z,1002.49
2019-05-06T10:16:03.063Z,1002.48
2019-05-06T10:17:04.392Z,1002.45
2019-05-06T10:18:04.465Z,1002.49
2019-05-06T10:19:02.537Z,1002.50
2019-05-06T10:20:02.878Z,1002.53
2019-05-06T10:21:01.859Z,1002.52
2019-05-06T10:22:03.545Z,1002.59
2019-05-06T10:23:02.811Z,1002.59
2019-05-06T10:24:02.955Z,1002.61
2019-05-06T10:25:03.641Z,1002.67
2019-05-06T10:26:04.519Z,1002.71
2019-05-06T10:27:02.630Z,1002.70
2019-05-06T10:28:02.860Z,1002.66
2019-05-06T10:29:02.437Z,1002.70
2019-05-06T10:30:03.454Z,1002.68
2019-05-06T10:31:02.234Z,1002.67
2019-05-06T10:32:02.115Z,1002.68
2019-05-06T10:33:02.275Z,1002.73
2019-05-06T10:34:03.027Z,1002.74
2019-05-06T10:35:02.794Z,1002.75
2019-05-06T10:36:03.180Z,1002.78
2019-05-06T10:37:14.645Z,1002.76
2019-05-06T10:38:02.964Z,1002.75
2019-05-06T10:39:02.403Z,1002.73
2019-05-06T10:40:03.096Z,1002.72
2019-05-06T10:41:06.665Z,1002.71
2019-05-06T10:42:03.294Z,1002.70
2019-05-06T10:43:02.771Z,1002.68
2019-05-06T10:44:03.016Z,1002.68
2019-05-06T10:45:02.344Z,1002.71
2019-05-06T10:46:04.124Z,1002.71
2019-05-06T10:47:02.944Z,1002.74
2019-05-06T10:48:03.426Z,1002.78
2019-05-06T10:49:02.712Z,1002.77
2019-05-06T10:50:02.453Z,1002.79
2019-05-06T10:51:03.574Z,1002.78
2019-05-06T10:52:02.490Z,1002.78
2019-05-06T10:53:02.829Z,1002.79
2019-05-06T10:54:03.545Z,1002.78
2019-05-06T10:55:03.330Z,1002.83
2019-05-06T10:56:02.568Z,1002.87
2019-05-06T10:57:02.592Z,1002.91
2019-05-06T10:58:02.878Z,1002.88
2019-05-06T10:59:02.632Z,1002.92
2019-05-06T11:00:03.672Z,1002.90
2019-05-06T11:01:03.617Z,1002.92
2019-05-06T11:02:05.423Z,1002.93
2019-05-06T11:03:02.714Z,1002.93
2019-05-06T11:04:02.950Z,1002.92
2019-05-06T11:05:02.983Z,1002.97
2019-05-06T11:06:03.794Z,1003.01
2019-05-06T11:07:04.023Z,1002.99
2019-05-06T11:08:02.836Z,1002.99
2019-05-06T11:09:03.297Z,1002.98
2019-05-06T11:10:02.974Z,1003.00
2019-05-06T11:11:14.920Z,1003.00
2019-05-06T11:12:03.907Z,1003.00
2019-05-06T11:13:03.535Z,1002.98
2019-05-06T11:14:03.229Z,1003.01
2019-05-06T11:15:03.653Z,1002.99
2019-05-06T11:16:03.519Z,1003.00
2019-05-06T11:17:05.123Z,1002.99
2019-05-06T11:18:04.870Z,1003.02
2019-05-06T11:19:05.130Z,1003.03
2019-05-06T11:20:06.375Z,1003.05
2019-05-06T11:21:03.601Z,1003.06
2019-05-06T11:22:03.811Z,1003.12
2019-05-06T11:23:03.120Z,1003.09
2019-05-06T11:24:06.238Z,1003.14
2019-05-06T11:25:03.373Z,1003.16
2019-05-06T11:26:03.329Z,1003.16
2019-05-06T11:27:03.636Z,1003.22
2019-05-06T11:28:03.251Z,1003.19
2019-05-06T11:29:05.029Z,1003.22
2019-05-06T11:30:04.272Z,1003.25
2019-05-06T11:31:03.281Z,1003.22
2019-05-06T11:32:03.306Z,1003.26
2019-05-06T11:33:04.740Z,1003.28
2019-05-06T11:34:03.362Z,1003.28
2019-05-06T11:35:03.897Z,1003.33
2019-05-06T11:36:04.420Z,1003.37
2019-05-06T11:37:03.426Z,1003.41
2019-05-06T11:38:03.423Z,1003.44
2019-05-06T11:39:03.444Z,1003.46
2019-05-06T11:40:03.464Z,1003.46
2019-05-06T11:41:03.488Z,1003.48
2019-05-06T11:42:23.798Z,1003.48
2019-05-06T11:43:03.525Z,1003.54
2019-05-06T11:44:03.543Z,1003.56
2019-05-06T11:45:03.567Z,1003.58
2019-05-06T11:46:03.592Z,1003.58
2019-05-06T11:47:03.605Z,1003.59
2019-05-06T11:48:04.637Z,1003.59
2019-05-06T11:49:03.690Z,1003.56
2019-05-06T11:50:05.128Z,1003.59
2019-05-06T11:51:03.686Z,1003.62
2019-05-06T11:52:03.728Z,1003.65
2019-05-06T11:53:03.775Z,1003.69
2019-05-06T11:54:16.345Z,1003.70
2019-05-06T11:55:03.773Z,1003.74
2019-05-06T11:56:03.810Z,1003.74
2019-05-06T11:57:03.811Z,1003.74
2019-05-06T11:58:03.829Z,1003.81
2019-05-06T11:59:03.852Z,1003.81
2019-05-06T12:00:04.882Z,1003.85
2019-05-06T12:01:03.885Z,1003.91
2019-05-06T12:02:03.914Z,1003.92
2019-05-06T12:03:03.931Z,1003.92
2019-05-06T12:04:03.952Z,1003.95
2019-05-06T12:05:03.968Z,1003.98
2019-05-06T12:06:05.001Z,1003.94